Time;durP1;ratioP1;P1;durP2;ratioP2;P2;SDS_P1;SDS_P2;PMS_P1;PMS_P2;Temp;Humidity;BMP_temperature;BMP_pressure;BME280_temperature;BME280_humidity;BME280_pressure;Samples;Min_cycle;Max_cycle;Signal;HPM_P1;HPM_P2
2022/04/29 00:00:44;;;;;;;0.00;0.00;;;12.70;86.40;;;;;;5016795;28;20028;-79
2022/04/29 00:03:11;;;;;;;0.00;0.00;;;12.70;87.10;;;;;;5039179;28;20022;-83
2022/04/29 00:05:40;;;;;;;0.00;0.00;;;12.60;86.60;;;;;;5030526;28;20026;-85
2022/04/29 00:08:07;;;;;;;0.00;0.00;;;12.60;87.00;;;;;;5017839;28;20092;-79
2022/04/29 00:10:34;;;;;;;0.00;0.00;;;12.50;85.30;;;;;;5022198;28;20022;-79
2022/04/29 00:13:01;;;;;;;0.00;0.00;;;12.50;88.60;;;;;;5020037;28;20026;-81
2022/04/29 00:15:27;;;;;;;0.00;0.00;;;12.40;86.20;;;;;;5022820;28;20098;-78
2022/04/29 00:17:53;;;;;;;0.00;0.00;;;12.30;86.80;;;;;;5032988;28;20273;-84
2022/04/29 00:20:19;;;;;;;0.00;0.00;;;12.30;86.30;;;;;;5022721;28;20251;-77
2022/04/29 00:22:45;;;;;;;0.00;0.00;;;12.30;88.10;;;;;;5027303;28;20021;-80
2022/04/29 00:25:12;;;;;;;0.00;0.00;;;12.30;90.00;;;;;;5031514;28;20105;-84
2022/04/29 00:27:40;;;;;;;0.00;0.00;;;12.20;89.80;;;;;;5018056;28;20022;-85
2022/04/29 00:30:07;;;;;;;0.00;0.00;;;12.20;90.60;;;;;;5031337;28;20025;-84
2022/04/29 00:32:33;;;;;;;0.00;0.00;;;12.20;90.50;;;;;;5026354;28;20109;-85
2022/04/29 00:34:59;;;;;;;0.00;0.00;;;12.10;90.20;;;;;;5015868;28;20060;-78
2022/04/29 00:37:25;;;;;;;0.00;0.00;;;12.10;91.40;;;;;;5029569;28;20026;-84
2022/04/29 00:39:51;;;;;;;0.00;0.00;;;12.10;90.60;;;;;;5020527;28;20029;-85
2022/04/29 00:42:23;;;;;;;0.00;0.00;;;12.10;91.50;;;;;;5022277;28;20052;-80
2022/04/29 00:44:50;;;;;;;0.00;0.00;;;12.10;91.60;;;;;;5030492;28;20100;-77
2022/04/29 00:47:20;;;;;;;0.00;0.00;;;12.00;91.50;;;;;;5026732;28;20327;-85
2022/04/29 00:49:47;;;;;;;0.00;0.00;;;12.00;91.20;;;;;;5022286;28;20021;-82
2022/04/29 00:52:18;;;;;;;0.00;0.00;;;11.90;91.90;;;;;;5019311;28;20021;-81
2022/04/29 00:54:59;;;;;;;0.00;0.00;;;11.80;91.40;;;;;;5011527;28;20105;-84
2022/04/29 00:57:31;;;;;;;0.00;0.00;;;11.80;91.20;;;;;;5015908;28;20045;-81
2022/04/29 01:00:06;;;;;;;0.00;0.00;;;11.70;91.20;;;;;;5013875;28;20278;-84
2022/04/29 01:02:33;;;;;;;0.00;0.00;;;11.60;92.10;;;;;;5025623;28;20066;-85
2022/04/29 01:05:05;;;;;;;0.00;0.00;;;11.60;91.70;;;;;;5009543;28;20022;-83
2022/04/29 01:07:33;;;;;;;0.00;0.00;;;11.50;91.00;;;;;;5012177;28;20149;-84
2022/04/29 01:09:59;;;;;;;0.00;0.00;;;11.50;91.70;;;;;;5016029;28;20029;-79
2022/04/29 01:12:26;;;;;;;0.00;0.00;;;11.50;92.30;;;;;;5025916;28;20336;-86
2022/04/29 01:14:58;;;;;;;0.00;0.00;;;11.50;91.60;;;;;;5011951;28;20034;-84
2022/04/29 01:17:24;;;;;;;0.00;0.00;;;11.40;92.50;;;;;;5013528;28;20025;-86
2022/04/29 01:19:50;;;;;;;0.00;0.00;;;11.50;93.20;;;;;;5011017;28;20200;-83
2022/04/29 01:22:15;;;;;;;0.00;0.00;;;11.50;93.20;;;;;;5011837;28;20018;-83
2022/04/29 01:24:41;;;;;;;0.00;0.00;;;11.40;93.00;;;;;;5009455;28;20141;-80
2022/04/29 01:27:12;;;;;;;0.00;0.00;;;11.40;92.80;;;;;;5010857;28;20095;-84
2022/04/29 01:29:42;;;;;;;0.00;0.00;;;11.40;92.90;;;;;;5025363;28;20242;-79
2022/04/29 01:32:11;;;;;;;0.00;0.00;;;11.30;93.70;;;;;;5015286;28;20197;-79
2022/04/29 01:34:37;;;;;;;0.00;0.00;;;11.30;93.50;;;;;;5025708;28;20022;-84
2022/04/29 01:37:04;;;;;;;0.00;0.00;;;11.20;93.50;;;;;;5016159;28;20075;-84
2022/04/29 01:39:30;;;;;;;0.00;0.00;;;11.20;93.50;;;;;;5018865;28;20344;-79
2022/04/29 01:41:56;;;;;;;0.00;0.00;;;11.20;94.10;;;;;;5015669;28;20026;-85
2022/04/29 01:44:21;;;;;;;0.00;0.00;;;11.10;93.30;;;;;;5016883;28;20029;-77
2022/04/29 01:46:47;;;;;;;0.00;0.00;;;11.30;94.10;;;;;;5017762;28;20450;-84
2022/04/29 01:49:15;;;;;;;0.00;0.00;;;11.10;94.50;;;;;;5014021;28;20088;-82
2022/04/29 01:51:41;;;;;;;0.00;0.00;;;11.10;95.00;;;;;;5027807;28;20016;-83
2022/04/29 01:54:10;;;;;;;0.00;0.00;;;11.00;94.40;;;;;;5017746;28;20147;-83
2022/04/29 01:56:40;;;;;;;0.00;0.00;;;10.90;93.60;;;;;;5022226;28;20021;-82
2022/04/29 01:59:06;;;;;;;0.00;0.00;;;10.90;93.90;;;;;;5024760;28;20038;-84
2022/04/29 02:01:32;;;;;;;0.00;0.00;;;10.90;94.10;;;;;;5030554;28;20189;-85
2022/04/29 02:04:01;;;;;;;0.00;0.00;;;10.90;95.00;;;;;;5017774;28;20544;-76
2022/04/29 02:06:27;;;;;;;0.00;0.00;;;10.90;95.30;;;;;;5030353;28;20052;-84
2022/04/29 02:08:53;;;;;;;0.00;0.00;;;10.90;96.00;;;;;;5029547;28;20100;-85
2022/04/29 02:11:20;;;;;;;0.00;0.00;;;10.90;96.20;;;;;;5016275;28;20052;-77
2022/04/29 02:13:47;;;;;;;0.00;0.00;;;10.80;96.20;;;;;;5015827;28;20032;-83
2022/04/29 02:16:14;;;;;;;0.00;0.00;;;10.80;96.50;;;;;;5015434;28;20048;-82
2022/04/29 02:18:40;;;;;;;0.00;0.00;;;10.70;96.20;;;;;;5014872;28;20021;-79
2022/04/29 02:21:07;;;;;;;0.00;0.00;;;10.70;96.10;;;;;;5016042;28;20104;-84
2022/04/29 02:23:33;;;;;;;0.00;0.00;;;10.70;96.00;;;;;;5023917;28;20057;-84
2022/04/29 02:25:59;;;;;;;0.00;0.00;;;10.70;95.90;;;;;;5017940;28;20423;-77
2022/04/29 02:28:27;;;;;;;0.00;0.00;;;10.70;96.70;;;;;;5022314;28;20292;-79
2022/04/29 02:30:54;;;;;;;0.00;0.00;;;10.60;96.20;;;;;;5016203;28;20040;-83
2022/04/29 02:33:21;;;;;;;0.00;0.00;;;10.60;96.60;;;;;;5018674;28;20052;-79
2022/04/29 02:35:46;;;;;;;0.00;0.00;;;10.60;97.40;;;;;;5017775;28;20049;-81
2022/04/29 02:38:12;;;;;;;0.00;0.00;;;10.60;97.80;;;;;;5030459;28;20045;-81
2022/04/29 02:40:38;;;;;;;0.00;0.00;;;10.50;97.50;;;;;;5031516;28;20021;-77
2022/04/29 02:43:04;;;;;;;0.00;0.00;;;10.50;97.40;;;;;;5018503;28;20109;-80
2022/04/29 02:45:29;;;;;;;0.00;0.00;;;10.50;97.40;;;;;;5012548;28;20299;-81
2022/04/29 02:47:55;;;;;;;0.00;0.00;;;10.40;97.80;;;;;;5013076;28;20136;-81
2022/04/29 02:50:21;;;;;;;0.00;0.00;;;10.40;97.50;;;;;;5018005;28;20172;-77
2022/04/29 02:52:47;;;;;;;0.00;0.00;;;10.40;97.80;;;;;;5013900;28;20022;-79
2022/04/29 02:55:12;;;;;;;0.00;0.00;;;10.40;98.00;;;;;;5017800;28;20049;-82
2022/04/29 02:57:38;;;;;;;0.00;0.00;;;10.40;98.80;;;;;;5012752;28;20022;-78
2022/04/29 03:00:04;;;;;;;0.00;0.00;;;10.40;98.60;;;;;;5015158;28;20029;-85
2022/04/29 03:02:30;;;;;;;0.00;0.00;;;10.30;98.70;;;;;;5016293;28;20277;-85
2022/04/29 03:04:56;;;;;;;0.00;0.00;;;10.30;98.90;;;;;;5013914;28;20022;-82
2022/04/29 03:07:22;;;;;;;0.00;0.00;;;10.30;98.80;;;;;;5013633;28;20337;-78
2022/04/29 03:09:48;;;;;;;0.00;0.00;;;10.20;98.20;;;;;;5014153;28;20476;-83
2022/04/29 03:12:14;;;;;;;0.00;0.00;;;10.20;98.00;;;;;;5015145;28;20051;-87
2022/04/29 03:14:41;;;;;;;0.00;0.00;;;10.20;98.60;;;;;;5017241;28;20221;-87
2022/04/29 03:18:17;;;;;;;0.00;0.00;;;10.20;99.10;;;;;;5019313;28;20048;-82
2022/04/29 03:19:59;;;;;;;0.00;0.00;;;10.10;98.80;;;;;;5015216;28;20052;-83
2022/04/29 03:22:26;;;;;;;0.00;0.00;;;10.10;98.80;;;;;;5014514;28;20109;-83
2022/04/29 03:24:52;;;;;;;0.00;0.00;;;10.10;99.80;;;;;;5017034;28;20049;-82
2022/04/29 03:27:18;;;;;;;0.00;0.00;;;10.10;99.90;;;;;;5027814;28;20178;-77
2022/04/29 03:29:44;;;;;;;0.00;0.00;;;10.10;99.90;;;;;;5020891;28;20299;-84
2022/04/29 03:32:09;;;;;;;0.00;0.00;;;10.00;99.90;;;;;;5024167;28;20073;-81
2022/04/29 03:34:35;;;;;;;0.00;0.00;;;10.00;99.90;;;;;;5012320;28;20049;-82
2022/04/29 03:37:01;;;;;;;0.00;0.00;;;10.00;99.90;;;;;;5017974;28;20056;-83
2022/04/29 03:39:27;;;;;;;0.00;0.00;;;10.00;99.90;;;;;;5017870;28;20032;-84
2022/04/29 03:41:52;;;;;;;0.00;0.00;;;10.00;99.90;;;;;;5014773;28;20093;-84
2022/04/29 03:44:19;;;;;;;0.00;0.00;;;9.90;99.90;;;;;;5014232;28;20037;-77
2022/04/29 03:46:45;;;;;;;0.00;0.00;;;9.90;99.90;;;;;;5012669;28;20167;-82
2022/04/29 03:51:55;;;;;;;0.10;0.10;;;9.80;99.90;;;;;;5019502;28;20045;-84
2022/04/29 03:54:21;;;;;;;0.00;0.00;;;9.80;99.90;;;;;;5016838;28;20037;-79
2022/04/29 03:56:47;;;;;;;0.00;0.00;;;9.80;99.90;;;;;;5016528;28;20195;-84
2022/04/29 03:59:13;;;;;;;0.00;0.00;;;9.80;99.90;;;;;;5026905;28;20328;-78
2022/04/29 04:01:39;;;;;;;0.00;0.00;;;9.80;99.90;;;;;;5012940;28;20480;-77
2022/04/29 04:04:05;;;;;;;0.00;0.00;;;9.80;99.90;;;;;;5022178;28;20045;-84
2022/04/29 04:09:20;;;;;;;0.00;0.00;;;9.80;99.90;;;;;;5015790;28;20123;-82
2022/04/29 04:11:46;;;;;;;0.00;0.00;;;9.80;99.90;;;;;;5021419;28;20296;-83
2022/04/29 04:14:12;;;;;;;0.00;0.00;;;9.90;99.90;;;;;;5016651;28;20058;-82
2022/04/29 04:16:38;;;;;;;0.00;0.00;;;9.90;99.90;;;;;;5016699;28;20037;-78
2022/04/29 04:19:04;;;;;;;0.00;0.00;;;9.90;99.90;;;;;;5016221;28;20058;-84
2022/04/29 04:21:31;;;;;;;0.00;0.00;;;9.90;99.90;;;;;;5014714;28;20124;-83
2022/04/29 04:23:56;;;;;;;0.00;0.00;;;9.90;99.90;;;;;;5016085;28;20060;-85
2022/04/29 04:26:22;;;;;;;0.00;0.00;;;9.90;99.90;;;;;;5019347;28;20029;-79
2022/04/29 04:28:48;;;;;;;0.00;0.00;;;9.90;99.90;;;;;;5017707;28;20025;-79
2022/04/29 04:31:14;;;;;;;0.00;0.00;;;9.90;99.90;;;;;;5017344;28;20166;-83
2022/04/29 04:33:41;;;;;;;0.00;0.00;;;9.90;99.90;;;;;;5026814;28;20034;-84
2022/04/29 04:36:09;;;;;;;0.00;0.00;;;9.90;99.90;;;;;;5018215;28;20040;-85
2022/04/29 04:38:36;;;;;;;0.00;0.00;;;9.90;99.90;;;;;;5014922;28;20056;-85
2022/04/29 04:41:03;;;;;;;0.00;0.00;;;10.00;99.90;;;;;;5026726;28;20017;-82
2022/04/29 04:43:29;;;;;;;0.00;0.00;;;9.90;99.90;;;;;;5021363;28;20096;-80
2022/04/29 04:45:56;;;;;;;0.00;0.00;;;10.00;99.90;;;;;;5012374;28;20029;-83
2022/04/29 04:48:22;;;;;;;0.10;0.10;;;10.00;99.90;;;;;;5014228;28;20018;-78
2022/04/29 04:50:48;;;;;;;0.00;0.00;;;10.00;99.90;;;;;;5024113;28;20196;-79
2022/04/29 04:53:14;;;;;;;0.00;0.00;;;10.00;99.90;;;;;;5021966;28;20037;-85
2022/04/29 04:55:40;;;;;;;0.00;0.00;;;10.10;99.90;;;;;;5025863;28;20025;-81
2022/04/29 04:58:06;;;;;;;0.00;0.00;;;10.10;99.90;;;;;;5026590;28;20191;-80
2022/04/29 05:00:32;;;;;;;0.00;0.00;;;10.20;99.90;;;;;;5013601;28;20032;-81
2022/04/29 05:02:58;;;;;;;0.00;0.00;;;10.20;99.90;;;;;;5020601;28;20017;-79
2022/04/29 05:05:24;;;;;;;0.00;0.00;;;10.20;99.90;;;;;;5016240;28;20097;-77
2022/04/29 05:07:49;;;;;;;0.00;0.00;;;10.20;99.90;;;;;;5009965;28;20564;-78
2022/04/29 05:10:15;;;;;;;0.00;0.00;;;10.30;99.90;;;;;;5014984;28;20100;-77
2022/04/29 05:12:43;;;;;;;0.00;0.00;;;10.30;99.90;;;;;;5011550;28;20444;-79
2022/04/29 05:15:09;;;;;;;0.00;0.00;;;10.30;99.90;;;;;;5026341;28;20093;-76
2022/04/29 05:17:35;;;;;;;0.00;0.00;;;10.40;99.90;;;;;;5019027;28;20034;-78
2022/04/29 05:20:02;;;;;;;0.00;0.00;;;10.40;99.90;;;;;;5015492;28;20049;-80
2022/04/29 05:22:31;;;;;;;0.00;0.00;;;10.50;99.90;;;;;;5014625;28;20212;-79
2022/04/29 05:24:58;;;;;;;0.00;0.00;;;10.50;99.90;;;;;;5015427;28;20271;-81
2022/04/29 05:27:24;;;;;;;0.43;0.43;;;10.60;99.90;;;;;;5026924;28;20060;-81
2022/04/29 05:29:49;;;;;;;0.00;0.00;;;10.60;99.90;;;;;;5026321;28;20185;-82
2022/04/29 05:32:16;;;;;;;0.00;0.00;;;10.70;99.90;;;;;;5016781;28;20097;-87
2022/04/29 05:34:42;;;;;;;0.00;0.00;;;10.70;99.90;;;;;;5032965;28;20018;-85
2022/04/29 05:37:08;;;;;;;0.00;0.00;;;10.80;99.90;;;;;;5020090;28;20281;-79
2022/04/29 05:42:21;;;;;;;0.00;0.00;;;11.00;99.90;;;;;;5020219;28;20111;-85
2022/04/29 05:44:46;;;;;;;0.00;0.00;;;11.10;99.90;;;;;;5018580;28;20040;-84
2022/04/29 05:47:12;;;;;;;0.00;0.00;;;11.10;99.90;;;;;;5017174;28;20055;-86
2022/04/29 05:49:38;;;;;;;0.00;0.00;;;11.20;99.90;;;;;;5017783;28;20030;-80
2022/04/29 05:52:05;;;;;;;0.00;0.00;;;11.20;99.90;;;;;;5017779;28;20017;-84
2022/04/29 05:54:31;;;;;;;0.00;0.00;;;11.30;99.90;;;;;;5020794;28;20034;-84
2022/04/29 05:57:01;;;;;;;0.00;0.00;;;11.20;99.90;;;;;;5017745;28;20077;-87
2022/04/29 05:59:27;;;;;;;0.00;0.00;;;11.40;99.90;;;;;;5023583;28;20265;-73
2022/04/29 06:01:54;;;;;;;0.00;0.00;;;11.40;99.90;;;;;;5018271;28;20310;-80
2022/04/29 06:04:20;;;;;;;0.00;0.00;;;11.40;99.90;;;;;;5030183;28;20312;-87
2022/04/29 06:06:47;;;;;;;0.75;0.75;;;11.50;99.90;;;;;;5019321;28;20093;-88
2022/04/29 06:09:13;;;;;;;0.00;0.00;;;11.50;99.90;;;;;;5016740;28;20028;-85
2022/04/29 06:11:38;;;;;;;0.00;0.00;;;11.60;99.90;;;;;;5029140;28;20026;-78
2022/04/29 06:14:04;;;;;;;0.00;0.00;;;11.70;99.90;;;;;;5016098;28;20299;-86
2022/04/29 06:16:30;;;;;;;0.00;0.00;;;11.90;99.90;;;;;;5019864;28;20029;-85
2022/04/29 06:18:56;;;;;;;0.00;0.00;;;12.80;99.90;;;;;;5025325;28;20025;-86
2022/04/29 06:21:22;;;;;;;0.00;0.00;;;13.80;99.90;;;;;;5019720;28;20033;-78
2022/04/29 06:23:48;;;;;;;0.00;0.00;;;15.00;99.90;;;;;;5019333;28;20058;-80
2022/04/29 06:26:15;;;;;;;0.00;0.00;;;16.00;99.90;;;;;;5016933;28;20049;-81
2022/04/29 06:28:41;;;;;;;0.00;0.00;;;17.10;99.90;;;;;;5016612;28;20334;-85
2022/04/29 06:31:07;;;;;;;0.00;0.00;;;17.80;96.50;;;;;;5016731;28;20100;-82
2022/04/29 06:33:33;;;;;;;0.00;0.00;;;18.50;96.60;;;;;;5023173;28;20056;-87
2022/04/29 06:36:00;;;;;;;0.00;0.00;;;18.90;86.90;;;;;;5031195;28;20040;-82
2022/04/29 06:38:26;;;;;;;0.00;0.00;;;19.20;83.00;;;;;;5029885;28;20117;-86
2022/04/29 06:40:52;;;;;;;0.00;0.00;;;19.70;92.10;;;;;;5026346;28;20018;-81
2022/04/29 06:43:19;;;;;;;0.00;0.00;;;20.30;92.30;;;;;;5026863;28;20037;-79
2022/04/29 06:45:45;;;;;;;0.00;0.00;;;20.90;93.80;;;;;;5027668;28;20324;-85
2022/04/29 06:48:10;;;;;;;0.00;0.00;;;20.70;90.50;;;;;;5029895;28;20025;-86
2022/04/29 06:50:36;;;;;;;0.00;0.00;;;19.80;91.20;;;;;;5028850;28;20321;-86
2022/04/29 06:53:02;;;;;;;0.00;0.00;;;18.80;92.50;;;;;;5029084;28;20157;-83
2022/04/29 06:55:28;;;;;;;0.00;0.00;;;17.80;92.00;;;;;;5024197;28;20104;-82
2022/04/29 06:57:54;;;;;;;0.00;0.00;;;17.10;92.50;;;;;;5028865;28;20041;-84
2022/04/29 07:00:20;;;;;;;0.00;0.00;;;16.60;93.90;;;;;;5022521;28;20053;-82
2022/04/29 07:02:46;;;;;;;0.00;0.00;;;16.20;93.60;;;;;;5027175;28;20212;-82
2022/04/29 07:05:12;;;;;;;0.43;0.43;;;15.90;94.40;;;;;;5024402;28;20021;-84
2022/04/29 07:07:38;;;;;;;0.00;0.00;;;15.70;94.70;;;;;;5029441;28;20021;-78
2022/04/29 07:10:05;;;;;;;0.00;0.00;;;15.50;96.70;;;;;;5027868;28;20041;-78
2022/04/29 07:12:33;;;;;;;0.00;0.00;;;15.30;97.40;;;;;;5018645;28;20071;-86
2022/04/29 07:14:59;;;;;;;0.00;0.00;;;15.20;94.80;;;;;;5023914;28;20014;-81
2022/04/29 07:17:26;;;;;;;0.00;0.00;;;15.10;93.50;;;;;;5030207;28;20033;-81
2022/04/29 07:19:53;;;;;;;0.00;0.00;;;15.00;95.20;;;;;;5027171;28;20021;-86
2022/04/29 07:22:19;;;;;;;0.00;0.00;;;15.00;94.80;;;;;;5027231;28;20025;-86
2022/04/29 07:24:45;;;;;;;0.00;0.00;;;14.90;94.10;;;;;;5027188;28;20049;-85
2022/04/29 07:27:13;;;;;;;0.00;0.00;;;14.90;92.10;;;;;;5026285;28;20045;-91
2022/04/29 07:29:38;;;;;;;0.00;0.00;;;14.90;93.20;;;;;;5027297;28;20013;-85
2022/04/29 07:32:04;;;;;;;0.00;0.00;;;14.90;95.90;;;;;;5030699;28;20087;-85
2022/04/29 07:42:43;;;;;;;0.00;0.00;;;14.80;93.90;;;;;;5023508;28;20308;-84
2022/04/29 07:45:09;;;;;;;0.25;0.25;;;14.80;93.30;;;;;;5017671;28;20030;-82
2022/04/29 07:47:36;;;;;;;0.00;0.00;;;14.90;92.50;;;;;;5027569;28;20025;-88
2022/04/29 07:50:04;;;;;;;0.00;0.00;;;14.90;92.70;;;;;;5024249;28;20107;-85
2022/04/29 07:52:30;;;;;;;0.00;0.00;;;14.90;90.80;;;;;;5029983;28;20036;-84
2022/04/29 07:54:55;;;;;;;0.00;0.00;;;14.90;90.80;;;;;;5027737;28;20030;-84
2022/04/29 07:57:21;;;;;;;0.00;0.00;;;14.90;91.30;;;;;;5015385;28;20089;-84
2022/04/29 07:59:49;;;;;;;0.00;0.00;;;14.90;86.70;;;;;;5026816;28;20133;-77
2022/04/29 08:02:15;;;;;;;0.30;0.30;;;15.00;89.90;;;;;;5027924;28;20029;-84
2022/04/29 08:04:41;;;;;;;0.00;0.00;;;15.00;90.60;;;;;;5016800;28;20029;-85
2022/04/29 08:07:07;;;;;;;0.10;0.10;;;15.10;84.30;;;;;;5016804;28;20010;-83
2022/04/29 08:09:33;;;;;;;0.00;0.00;;;15.20;85.10;;;;;;5013976;28;20148;-81
2022/04/29 08:11:58;;;;;;;0.43;0.30;;;15.20;83.40;;;;;;5030109;28;20093;-85
2022/04/29 08:14:24;;;;;;;0.00;0.00;;;15.20;82.40;;;;;;5013784;28;20090;-79
2022/04/29 08:16:50;;;;;;;0.00;0.00;;;15.20;89.60;;;;;;5013636;28;20042;-83
2022/04/29 08:19:16;;;;;;;0.00;0.00;;;15.20;88.00;;;;;;5019119;28;20249;-80
2022/04/29 08:21:41;;;;;;;0.00;0.00;;;15.20;89.60;;;;;;5018726;28;20528;-84
2022/04/29 08:24:07;;;;;;;0.10;0.10;;;15.30;87.30;;;;;;5028692;28;20148;-82
2022/04/29 08:26:33;;;;;;;0.00;0.00;;;15.30;90.00;;;;;;5029343;28;20325;-80
2022/04/29 08:28:58;;;;;;;0.00;0.00;;;15.30;87.50;;;;;;5017680;28;20040;-79
2022/04/29 08:31:25;;;;;;;0.00;0.00;;;15.40;84.30;;;;;;5014837;28;20029;-82
2022/04/29 08:33:51;;;;;;;0.00;0.00;;;15.40;86.80;;;;;;5013805;28;20119;-82
2022/04/29 08:36:30;;;;;;;0.00;0.00;;;15.40;85.80;;;;;;5015419;28;20018;-81
2022/04/29 08:39:01;;;;;;;0.00;0.00;;;15.40;85.40;;;;;;5020787;28;20796;-79
2022/04/29 08:41:27;;;;;;;0.00;0.00;;;15.50;91.00;;;;;;5032525;28;20021;-80
2022/04/29 08:43:54;;;;;;;0.00;0.00;;;15.60;87.70;;;;;;5016483;28;20064;-80
2022/04/29 08:46:23;;;;;;;0.00;0.00;;;15.70;91.50;;;;;;5016580;28;20021;-80
2022/04/29 08:48:50;;;;;;;0.45;0.45;;;15.60;81.60;;;;;;5026487;28;20088;-80
2022/04/29 08:51:18;;;;;;;0.00;0.00;;;15.60;79.10;;;;;;5014129;28;20080;-82
2022/04/29 08:53:43;;;;;;;0.00;0.00;;;15.60;90.00;;;;;;5026396;28;20168;-81
2022/04/29 08:58:55;;;;;;;0.00;0.00;;;15.80;84.30;;;;;;5014539;28;20053;-80
2022/04/29 09:01:21;;;;;;;0.00;0.00;;;16.20;92.10;;;;;;5012993;28;20133;-78
2022/04/29 09:03:47;;;;;;;0.00;0.00;;;17.20;91.30;;;;;;5013537;28;20231;-83
2022/04/29 09:06:17;;;;;;;6.82;0.90;;;19.10;77.80;;;;;;5016230;28;20033;-78
2022/04/29 09:08:44;;;;;;;0.00;0.00;;;21.10;82.80;;;;;;5017045;28;20075;-80
2022/04/29 09:11:12;;;;;;;0.00;0.00;;;23.10;89.20;;;;;;5027887;28;20728;-80
2022/04/29 09:13:39;;;;;;;0.00;0.00;;;24.30;82.40;;;;;;5012624;28;20033;-79
2022/04/29 09:16:11;;;;;;;0.00;0.00;;;25.50;82.10;;;;;;5017858;28;20034;-81
2022/04/29 09:18:39;;;;;;;0.00;0.00;;;26.60;81.50;;;;;;5016399;28;20045;-85
2022/04/29 09:21:10;;;;;;;0.25;0.25;;;27.30;72.80;;;;;;5029948;28;20025;-76
2022/04/29 09:23:42;;;;;;;0.00;0.00;;;27.90;68.90;;;;;;5013321;28;20046;-81
2022/04/29 09:26:24;;;;;;;0.00;0.00;;;28.40;56.00;;;;;;5014344;28;20076;-74
2022/04/29 09:28:52;;;;;;;0.00;0.00;;;28.70;54.20;;;;;;5010221;28;20147;-77
2022/04/29 09:31:18;;;;;;;0.00;0.00;;;29.20;52.90;;;;;;5017537;28;20121;-73
2022/04/29 09:33:57;;;;;;;0.00;0.00;;;29.50;54.20;;;;;;5012259;28;20119;-77
2022/04/29 09:36:26;;;;;;;0.00;0.00;;;29.80;54.90;;;;;;5013627;28;20382;-75
2022/04/29 09:41:58;;;;;;;0.00;0.00;;;30.10;50.60;;;;;;5012004;28;20380;-77
2022/04/29 09:44:33;;;;;;;;;;;30.10;56.90;;;;;;5013221;28;20118;-77
2022/04/29 09:47:17;;;;;;;0.00;0.00;;;30.10;57.00;;;;;;5025560;28;19910;-80
2022/04/29 09:49:59;;;;;;;0.00;0.00;;;29.80;53.80;;;;;;5023870;28;20017;-82
2022/04/29 09:52:26;;;;;;;0.00;0.00;;;29.60;56.90;;;;;;5025293;28;20021;-76
2022/04/29 09:54:52;;;;;;;0.00;0.00;;;29.80;57.50;;;;;;5024051;28;20097;-79
2022/04/29 09:57:23;;;;;;;0.00;0.00;;;30.20;54.50;;;;;;5015116;28;20292;-77
2022/04/29 09:59:51;;;;;;;0.00;0.00;;;29.90;54.20;;;;;;5023793;28;20136;-77
2022/04/29 10:02:22;;;;;;;0.00;0.00;;;28.90;62.10;;;;;;5012057;28;20037;-75
2022/04/29 10:04:49;;;;;;;0.00;0.00;;;29.00;55.80;;;;;;5019758;28;20018;-76
2022/04/29 10:07:17;;;;;;;0.00;0.00;;;29.50;58.20;;;;;;5024820;28;20135;-77
2022/04/29 10:09:48;;;;;;;0.00;0.00;;;29.90;57.80;;;;;;5030318;28;20049;-81
2022/04/29 10:12:15;;;;;;;0.00;0.00;;;30.20;55.30;;;;;;5026204;28;20045;-77
2022/04/29 10:14:43;;;;;;;0.00;0.00;;;30.30;56.10;;;;;;5023855;28;20094;-81
2022/04/29 10:22:55;;;;;;;0.00;0.00;;;30.80;47.20;;;;;;5018705;28;20064;-79
2022/04/29 10:25:30;;;;;;;1.35;0.10;;;29.30;45.80;;;;;;5030207;28;20027;-77
2022/04/29 10:27:56;;;;;;;0.00;0.00;;;27.60;52.40;;;;;;5028756;28;20030;-73
2022/04/29 10:30:36;;;;;;;0.00;0.00;;;26.20;55.20;;;;;;5018399;28;20261;-82
2022/04/29 10:33:23;;;;;;;0.00;0.00;;;24.90;50.10;;;;;;5019852;28;20022;-79
2022/04/29 10:35:56;;;;;;;0.00;0.00;;;24.00;53.00;;;;;;5027678;28;20025;-81
2022/04/29 10:38:21;;;;;;;0.00;0.00;;;24.70;48.80;;;;;;5020954;28;20022;-80
2022/04/29 10:41:07;;;;;;;0.00;0.00;;;25.30;48.00;;;;;;5018310;28;20057;-86
2022/04/29 10:43:40;;;;;;;0.00;0.00;;;25.60;44.50;;;;;;5016020;28;20258;-81
2022/04/29 10:46:06;;;;;;;0.00;0.00;;;25.40;49.20;;;;;;5021989;28;20060;-81
2022/04/29 10:48:33;;;;;;;0.00;0.00;;;26.70;56.30;;;;;;5016172;28;20166;-79
2022/04/29 10:51:16;;;;;;;0.00;0.00;;;27.60;53.80;;;;;;5015030;28;20132;-79
2022/04/29 10:53:43;;;;;;;0.00;0.00;;;28.50;46.10;;;;;;5027467;28;20068;-80
2022/04/29 10:56:31;;;;;;;0.00;0.00;;;28.60;48.80;;;;;;5020676;28;20037;-80
2022/04/29 10:59:42;;;;;;;0.00;0.00;;;29.00;56.90;;;;;;5020043;28;20037;-80
2022/04/29 11:02:08;;;;;;;0.00;0.00;;;29.30;57.50;;;;;;5014069;28;20025;-79
2022/04/29 11:04:36;;;;;;;0.00;0.00;;;29.70;56.50;;;;;;5028632;28;20086;-78
2022/04/29 11:07:02;;;;;;;0.00;0.00;;;29.90;53.00;;;;;;5016772;28;20310;-80
2022/04/29 11:09:35;;;;;;;0.00;0.00;;;29.10;43.20;;;;;;5016094;28;20044;-79
2022/04/29 11:12:02;;;;;;;0.00;0.00;;;29.40;42.00;;;;;;5020027;28;20021;-78
2022/04/29 11:14:28;;;;;;;0.00;0.00;;;29.90;51.50;;;;;;5029041;28;20050;-78
2022/04/29 11:17:14;;;;;;;0.00;0.00;;;30.10;48.00;;;;;;5028329;28;20071;-81
2022/04/29 11:19:45;;;;;;;0.00;0.00;;;30.00;52.50;;;;;;5028198;28;20261;-81
2022/04/29 11:25:02;;;;;;;0.00;0.00;;;29.00;50.20;;;;;;5006402;28;20115;-78
2022/04/29 11:27:34;;;;;;;0.00;0.00;;;27.70;47.00;;;;;;5003002;28;20095;-79
2022/04/29 11:30:02;;;;;;;0.00;0.00;;;26.60;46.30;;;;;;5000887;28;20665;-76
2022/04/29 11:32:30;;;;;;;0.00;0.00;;;25.40;55.70;;;;;;5002416;28;20333;-76
2022/04/29 11:34:57;;;;;;;0.00;0.00;;;24.40;51.90;;;;;;4999164;28;20118;-78
2022/04/29 11:37:24;;;;;;;;;;;23.60;52.60;;;;;;5002786;28;20316;-73
2022/04/29 11:39:54;;;;;;;0.00;0.00;;;23.60;62.60;;;;;;5001331;28;20000;-80
2022/04/29 11:42:20;;;;;;;0.00;0.00;;;24.20;53.40;;;;;;5003308;28;20113;-77
2022/04/29 11:45:05;;;;;;;0.00;0.00;;;24.70;51.00;;;;;;5001983;28;20026;-76
2022/04/29 11:47:32;;;;;;;0.00;0.00;;;24.60;50.20;;;;;;4999393;28;20033;-76
2022/04/29 11:49:59;;;;;;;0.00;0.00;;;24.60;50.80;;;;;;5001458;28;20053;-81
2022/04/29 11:52:27;;;;;;;0.00;0.00;;;24.50;46.60;;;;;;5005449;28;20627;-81
2022/04/29 11:55:02;;;;;;;0.00;0.00;;;24.20;48.80;;;;;;5003719;28;20030;-76
2022/04/29 11:57:30;;;;;;;0.00;0.00;;;24.10;58.90;;;;;;5003994;28;20037;-80
2022/04/29 11:59:56;;;;;;;0.00;0.00;;;23.80;61.90;;;;;;4998946;28;20116;-79
2022/04/29 12:02:24;;;;;;;0.00;0.00;;;23.40;62.40;;;;;;5001166;28;20033;-82
2022/04/29 12:05:15;;;;;;;0.00;0.00;;;23.10;49.70;;;;;;4998732;28;20056;-74
2022/04/29 12:07:42;;;;;;;0.00;0.00;;;22.80;51.30;;;;;;5000777;28;20069;-76
2022/04/29 12:10:29;;;;;;;0.00;0.00;;;22.60;62.10;;;;;;5000927;28;20057;-78
2022/04/29 12:13:00;;;;;;;0.00;0.00;;;22.60;55.80;;;;;;5002884;28;20025;-79
2022/04/29 12:15:37;;;;;;;0.00;0.00;;;22.30;55.80;;;;;;5000812;28;20034;-74
2022/04/29 12:18:06;;;;;;;0.00;0.00;;;22.20;51.00;;;;;;5001245;28;20045;-81
2022/04/29 12:20:32;;;;;;;0.00;0.00;;;22.10;57.10;;;;;;5000575;28;20136;-82
2022/04/29 12:23:19;;;;;;;0.00;0.00;;;21.80;58.50;;;;;;5000239;28;20308;-81
2022/04/29 12:25:46;;;;;;;0.00;0.00;;;21.70;61.80;;;;;;5001119;28;20037;-75
2022/04/29 12:28:23;;;;;;;0.00;0.00;;;21.50;53.40;;;;;;5002471;28;20183;-76
2022/04/29 12:37:13;;;;;;;0.00;0.00;;;20.90;53.70;;;;;;5000391;28;20335;-73
2022/04/29 12:39:43;;;;;;;0.00;0.00;;;20.60;54.90;;;;;;4998599;28;20046;-75
2022/04/29 12:42:17;;;;;;;0.00;0.00;;;20.50;54.70;;;;;;4997754;28;20063;-74
2022/04/29 12:47:32;;;;;;;0.00;0.00;;;20.30;53.80;;;;;;5002179;28;20177;-77
2022/04/29 12:50:19;;;;;;;0.00;0.00;;;20.30;56.60;;;;;;4998714;28;20044;-76
2022/04/29 12:53:13;;;;;;;0.00;0.00;;;20.30;56.70;;;;;;5000420;28;20037;-81
2022/04/29 12:55:51;;;;;;;0.00;0.00;;;20.20;62.00;;;;;;4999731;28;20099;-76
2022/04/29 12:58:21;;;;;;;0.00;0.00;;;20.20;59.90;;;;;;5000318;28;20136;-78
2022/04/29 13:01:08;;;;;;;0.00;0.00;;;20.20;59.90;;;;;;4996056;28;20257;-75
2022/04/29 13:03:34;;;;;;;0.00;0.00;;;20.20;57.70;;;;;;4999120;28;20034;-76
2022/04/29 13:06:01;;;;;;;1.45;0.13;;;20.20;56.50;;;;;;5002287;28;20038;-77
2022/04/29 13:08:29;;;;;;;0.00;0.00;;;20.20;53.70;;;;;;5002320;28;20135;-76
2022/04/29 13:10:57;;;;;;;0.00;0.00;;;20.20;56.30;;;;;;4998429;28;20033;-76
2022/04/29 13:13:26;;;;;;;0.00;0.00;;;20.20;52.30;;;;;;4999299;28;20149;-75
2022/04/29 13:15:53;;;;;;;0.00;0.00;;;20.20;55.70;;;;;;4998098;28;20034;-77
2022/04/29 13:18:20;;;;;;;0.00;0.00;;;20.20;54.80;;;;;;4998738;28;20029;-75
2022/04/29 13:20:46;;;;;;;0.00;0.00;;;20.20;54.50;;;;;;4998236;28;20344;-78
2022/04/29 13:23:12;;;;;;;0.00;0.00;;;20.10;56.60;;;;;;5002279;28;20065;-78
2022/04/29 13:25:40;;;;;;;0.00;0.00;;;20.00;57.70;;;;;;5000048;28;20029;-78
2022/04/29 13:28:06;;;;;;;0.00;0.00;;;19.90;52.80;;;;;;5001512;28;20132;-78
2022/04/29 13:30:32;;;;;;;0.00;0.00;;;19.80;54.80;;;;;;5000065;28;20332;-78
2022/04/29 13:32:58;;;;;;;0.00;0.00;;;19.80;52.20;;;;;;5001332;28;20043;-78